Time;durP1;ratioP1;P1;durP2;ratioP2;P2;SDS_P1;SDS_P2;PMS_P1;PMS_P2;Temp;Humidity;BMP_temperature;BMP_pressure;BME280_temperature;BME280_humidity;BME280_pressure;Samples;Min_cycle;Max_cycle;Signal;HPM_P1;HPM_P2
2023/01/22 00:02:04;;;;;;;26.73;18.48;;;-0.80;99.90;;;;;;6187763;23;20016;-82
2023/01/22 00:04:30;;;;;;;29.45;19.88;;;-0.80;99.90;;;;;;6186523;23;20462;-83
2023/01/22 00:06:56;;;;;;;30.00;20.20;;;0.00;99.90;;;;;;6211647;23;20439;-83
2023/01/22 00:09:21;;;;;;;30.08;20.75;;;-0.80;99.90;;;;;;6210950;23;20108;-82
2023/01/22 00:11:51;;;;;;;30.33;21.65;;;-0.70;99.90;;;;;;6211435;23;20009;-82
2023/01/22 00:14:17;;;;;;;33.45;23.23;;;-0.60;99.90;;;;;;6211484;23;20048;-82
2023/01/22 00:16:43;;;;;;;33.60;23.55;;;-0.60;99.90;;;;;;6212844;23;20020;-82
2023/01/22 00:19:09;;;;;;;37.80;25.63;;;0.20;99.90;;;;;;6213141;23;20046;-82
2023/01/22 00:21:35;;;;;;;39.42;26.70;;;-0.50;99.90;;;;;;6211565;23;20359;-82
2023/01/22 00:24:01;;;;;;;37.80;26.63;;;-0.50;99.90;;;;;;6185705;23;20024;-82
2023/01/22 00:26:27;;;;;;;39.75;27.90;;;-0.40;99.90;;;;;;6213135;23;20008;-82
2023/01/22 00:28:53;;;;;;;36.80;27.40;;;-0.30;99.90;;;;;;6211374;23;20072;-82
2023/01/22 00:31:19;;;;;;;40.38;28.05;;;-0.30;99.90;;;;;;6213288;23;20404;-82
2023/01/22 00:33:46;;;;;;;39.83;27.00;;;-0.30;99.90;;;;;;6213198;23;20087;-82
2023/01/22 00:36:18;;;;;;;41.95;27.70;;;-0.20;99.90;;;;;;6212873;23;20395;-82
2023/01/22 00:38:44;;;;;;;38.17;26.90;;;-0.30;99.90;;;;;;6210676;23;20100;-82
2023/01/22 00:41:11;;;;;;;40.88;27.30;;;0.30;99.90;;;;;;6211318;23;20052;-83
2023/01/22 00:43:37;;;;;;;36.65;26.73;;;-0.30;99.90;;;;;;6212902;23;20139;-82
2023/01/22 00:46:04;;;;;;;40.58;27.17;;;-0.40;99.90;;;;;;6213447;23;20024;-82
2023/01/22 00:48:29;;;;;;;39.33;27.25;;;-0.50;99.90;;;;;;6213929;23;20024;-82
2023/01/22 00:50:55;;;;;;;41.92;28.52;;;-0.50;99.90;;;;;;6236475;23;20289;-83
2023/01/22 00:53:21;;;;;;;37.60;28.20;;;-0.50;99.90;;;;;;6210518;23;20005;-82
2023/01/22 00:55:57;;;;;;;39.10;28.02;;;-0.60;99.90;;;;;;6210915;23;20020;-83
2023/01/22 00:58:23;;;;;;;40.65;26.90;;;-0.60;99.90;;;;;;6211448;23;20024;-82
2023/01/22 01:00:50;;;;;;;39.90;27.83;;;-0.70;99.90;;;;;;6211157;23;20087;-82
2023/01/22 01:03:31;;;;;;;42.28;28.45;;;-0.70;99.90;;;;;;6212927;23;20009;-82
2023/01/22 01:06:00;;;;;;;40.15;28.25;;;-0.80;99.90;;;;;;6211214;23;20556;-83
2023/01/22 01:08:28;;;;;;;44.85;28.63;;;-0.80;99.90;;;;;;6212692;23;20335;-82
2023/01/22 01:10:58;;;;;;;47.15;29.85;;;-0.90;99.90;;;;;;6236797;23;20044;-82
2023/01/22 01:13:24;;;;;;;39.15;28.35;;;-1.00;99.90;;;;;;6211262;23;20048;-82
2023/01/22 01:15:59;;;;;;;40.72;29.63;;;-1.00;99.90;;;;;;6213050;23;20013;-82
2023/01/22 01:18:24;;;;;;;46.03;29.05;;;-1.00;99.90;;;;;;6212964;23;20031;-82
2023/01/22 01:20:55;;;;;;;43.65;30.13;;;-1.10;99.90;;;;;;6210803;23;20048;-82
2023/01/22 01:23:21;;;;;;;43.80;30.13;;;-1.20;99.90;;;;;;6212408;23;20075;-82
2023/01/22 01:25:47;;;;;;;41.17;29.88;;;-0.40;99.90;;;;;;6212952;23;20016;-83
2023/01/22 01:28:13;;;;;;;43.35;30.63;;;-1.30;99.90;;;;;;6211089;23;20088;-82
2023/01/22 01:30:38;;;;;;;43.13;30.30;;;-1.30;99.90;;;;;;6213132;23;20017;-82
2023/01/22 01:33:04;;;;;;;52.30;29.75;;;-1.30;99.90;;;;;;6211231;23;20400;-82
2023/01/22 01:35:29;;;;;;;45.72;29.60;;;-1.40;99.90;;;;;;6212785;23;20462;-82
2023/01/22 01:37:55;;;;;;;45.38;29.92;;;-1.40;99.90;;;;;;6210042;23;20027;-83
2023/01/22 01:40:21;;;;;;;43.78;29.67;;;-1.40;99.90;;;;;;6210870;23;20126;-82
2023/01/22 01:42:47;;;;;;;57.15;30.98;;;-1.40;99.90;;;;;;6210712;23;20046;-82
2023/01/22 01:45:26;;;;;;;41.20;30.15;;;-1.40;99.90;;;;;;6210652;23;20021;-82
2023/01/22 01:48:03;;;;;;;50.13;33.10;;;-1.40;99.90;;;;;;6210798;23;20009;-82
2023/01/22 01:50:29;;;;;;;47.30;31.08;;;-1.40;99.90;;;;;;6210273;23;20059;-82
2023/01/22 01:52:58;;;;;;;44.42;29.88;;;-1.40;99.90;;;;;;6212627;23;20012;-82
2023/01/22 01:55:28;;;;;;;48.67;30.30;;;-1.50;99.90;;;;;;6212706;23;20009;-83
2023/01/22 01:57:58;;;;;;;46.60;30.67;;;-1.50;99.90;;;;;;6212921;23;20019;-82
2023/01/22 02:00:25;;;;;;;51.42;31.25;;;-1.40;99.90;;;;;;6238351;23;20009;-83
2023/01/22 02:02:51;;;;;;;48.75;30.58;;;-0.10;99.90;;;;;;6214911;23;20013;-83
2023/01/22 02:05:19;;;;;;;48.88;31.92;;;-1.40;99.90;;;;;;6212061;23;20018;-83
2023/01/22 02:07:45;;;;;;;54.22;32.58;;;-1.00;99.90;;;;;;6214552;23;20055;-83
2023/01/22 02:10:11;;;;;;;50.25;31.23;;;-0.30;99.90;;;;;;6214479;23;20152;-83
2023/01/22 02:12:36;;;;;;;44.42;30.00;;;0.00;99.90;;;;;;6214381;23;20428;-83
2023/01/22 02:15:04;;;;;;;49.25;31.10;;;-1.00;99.90;;;;;;6214501;23;20079;-83
2023/01/22 02:17:30;;;;;;;47.00;30.23;;;-0.90;99.90;;;;;;6212866;23;20017;-83
2023/01/22 02:19:55;;;;;;;47.05;30.23;;;-0.80;99.90;;;;;;6214097;23;20514;-82
2023/01/22 02:22:24;;;;;;;40.35;28.80;;;-0.70;99.90;;;;;;6214686;23;20008;-84
2023/01/22 02:24:50;;;;;;;45.42;29.77;;;-0.20;99.90;;;;;;6212369;23;20386;-83
2023/01/22 02:27:15;;;;;;;40.15;27.20;;;-0.60;99.90;;;;;;6214448;23;20083;-81
2023/01/22 02:29:41;;;;;;;38.80;26.83;;;-0.50;99.90;;;;;;6212573;23;20032;-83
2023/01/22 02:32:07;;;;;;;37.65;26.30;;;-0.40;99.90;;;;;;6212272;23;20343;-82
2023/01/22 02:34:32;;;;;;;39.55;26.35;;;-0.30;99.90;;;;;;6213595;23;20016;-82
2023/01/22 02:36:58;;;;;;;41.00;27.65;;;-0.20;99.90;;;;;;6212361;23;20017;-83
2023/01/22 02:39:23;;;;;;;36.97;26.58;;;-0.20;99.90;;;;;;6212322;23;20040;-82
2023/01/22 02:41:50;;;;;;;36.05;25.10;;;-0.10;99.90;;;;;;6212153;23;20012;-82
2023/01/22 02:44:15;;;;;;;31.48;22.88;;;-0.10;99.90;;;;;;6213972;23;20020;-82
2023/01/22 02:46:41;;;;;;;33.45;22.15;;;0.00;99.90;;;;;;6214102;23;20005;-82
2023/01/22 02:49:07;;;;;;;27.95;20.27;;;0.00;99.90;;;;;;6213608;23;20016;-82
2023/01/22 02:51:33;;;;;;;27.10;20.67;;;0.10;99.90;;;;;;6212027;23;20400;-82
2023/01/22 02:53:58;;;;;;;30.80;19.70;;;0.20;99.90;;;;;;6212134;23;20028;-82
2023/01/22 02:56:24;;;;;;;30.77;20.67;;;0.20;99.90;;;;;;6212498;23;20039;-82
2023/01/22 02:58:50;;;;;;;25.02;17.45;;;0.20;99.90;;;;;;6212272;23;20005;-82
2023/01/22 03:01:22;;;;;;;25.13;17.35;;;0.30;99.90;;;;;;6212398;23;20023;-82
2023/01/22 03:03:54;;;;;;;25.58;17.45;;;0.30;99.90;;;;;;6213383;23;20083;-83
2023/01/22 03:06:23;;;;;;;20.50;15.20;;;0.30;99.90;;;;;;6214331;23;20331;-82
2023/01/22 03:08:51;;;;;;;23.60;15.95;;;0.40;99.90;;;;;;6214953;23;20087;-82
2023/01/22 03:11:17;;;;;;;21.23;15.13;;;0.40;99.90;;;;;;6214063;23;20016;-83
2023/01/22 03:21:55;;;;;;;21.80;14.02;;;0.40;99.90;;;;;;6213687;23;20070;-83
2023/01/22 03:24:21;;;;;;;15.85;13.20;;;0.40;99.90;;;;;;6212028;23;20080;-82
2023/01/22 03:26:46;;;;;;;17.58;11.90;;;0.50;99.90;;;;;;6211830;23;20461;-82
2023/01/22 03:29:12;;;;;;;17.42;12.68;;;1.60;99.90;;;;;;6211982;23;20115;-82
2023/01/22 03:31:37;;;;;;;14.65;10.23;;;0.50;99.90;;;;;;6212067;23;20040;-83
2023/01/22 03:34:03;;;;;;;16.08;10.68;;;0.60;99.90;;;;;;6213422;23;20013;-83
2023/01/22 03:36:29;;;;;;;18.80;12.18;;;0.70;99.90;;;;;;6214073;23;20048;-83
2023/01/22 03:38:54;;;;;;;17.77;11.73;;;0.70;99.90;;;;;;6214184;23;20004;-83
2023/01/22 03:41:20;;;;;;;18.88;12.27;;;0.70;99.90;;;;;;6211654;23;20024;-83
2023/01/22 03:43:45;;;;;;;17.23;12.18;;;0.70;99.90;;;;;;6213364;23;20578;-83
2023/01/22 03:46:12;;;;;;;16.38;11.55;;;0.80;99.90;;;;;;6211170;23;20026;-83
2023/01/22 03:48:39;;;;;;;20.45;11.82;;;0.70;99.90;;;;;;6212736;23;20024;-83
2023/01/22 03:51:09;;;;;;;17.95;11.40;;;0.70;99.90;;;;;;6237546;23;20040;-83
2023/01/22 03:53:36;;;;;;;15.95;10.50;;;0.70;99.90;;;;;;6216201;23;20020;-83
2023/01/22 03:56:05;;;;;;;14.10;10.70;;;0.70;99.90;;;;;;6215129;23;20062;-83
2023/01/22 03:58:32;;;;;;;18.17;10.88;;;0.70;99.90;;;;;;6212631;23;20088;-82
2023/01/22 04:01:01;;;;;;;17.17;11.38;;;0.70;99.90;;;;;;6211908;23;20028;-82
2023/01/22 04:03:28;;;;;;;19.45;11.25;;;0.70;99.90;;;;;;6212465;23;20441;-83
2023/01/22 04:05:54;;;;;;;12.95;10.68;;;0.70;99.90;;;;;;6212576;23;20016;-83
2023/01/22 04:08:20;;;;;;;13.75;9.55;;;0.90;99.90;;;;;;6212411;23;20055;-83
2023/01/22 04:10:46;;;;;;;15.38;10.27;;;0.80;99.90;;;;;;6212946;23;20012;-83
2023/01/22 04:13:12;;;;;;;13.25;9.25;;;0.80;99.90;;;;;;6212643;23;20067;-84
2023/01/22 04:15:38;;;;;;;13.57;9.63;;;0.90;99.90;;;;;;6214212;23;20131;-84
2023/01/22 04:18:03;;;;;;;13.40;9.02;;;1.70;99.90;;;;;;6214675;23;20013;-83
2023/01/22 04:20:29;;;;;;;13.93;8.57;;;1.40;99.90;;;;;;6214409;23;20078;-83
2023/01/22 04:22:55;;;;;;;12.80;8.88;;;0.90;99.90;;;;;;6212833;23;20375;-83
2023/01/22 04:25:20;;;;;;;14.73;9.50;;;0.90;99.90;;;;;;6237846;23;20016;-83
2023/01/22 04:27:46;;;;;;;12.25;9.02;;;0.90;99.90;;;;;;6212649;23;20013;-83
2023/01/22 04:30:12;;;;;;;13.95;9.75;;;0.90;99.90;;;;;;6212118;23;20440;-83
2023/01/22 04:32:37;;;;;;;13.48;8.45;;;0.80;99.90;;;;;;6214483;23;20016;-83
2023/01/22 04:35:04;;;;;;;12.48;8.60;;;0.80;99.90;;;;;;6213722;23;20021;-83
2023/01/22 04:37:30;;;;;;;12.15;9.05;;;0.90;99.90;;;;;;6213202;23;20051;-83
2023/01/22 04:39:56;;;;;;;13.52;8.77;;;0.90;99.90;;;;;;6212948;23;20024;-84
2023/01/22 04:42:22;;;;;;;12.38;8.55;;;0.90;99.90;;;;;;6216521;23;20088;-84
2023/01/22 04:44:47;;;;;;;9.85;8.60;;;0.90;99.90;;;;;;6212267;23;20170;-83
2023/01/22 04:47:13;;;;;;;13.38;8.77;;;0.90;99.90;;;;;;6212431;23;20013;-84
2023/01/22 04:49:38;;;;;;;12.77;8.50;;;0.90;99.90;;;;;;6212145;23;20040;-84
2023/01/22 04:52:04;;;;;;;12.95;9.00;;;0.90;99.90;;;;;;6212602;23;20028;-84
2023/01/22 04:54:30;;;;;;;13.35;9.25;;;0.80;99.90;;;;;;6238419;23;20420;-84
2023/01/22 04:56:55;;;;;;;13.95;9.50;;;0.80;99.90;;;;;;6214580;23;20009;-83
2023/01/22 04:59:21;;;;;;;15.43;8.70;;;0.90;99.90;;;;;;6212092;23;20024;-84
2023/01/22 05:01:49;;;;;;;10.55;9.00;;;0.90;99.90;;;;;;6213018;23;20024;-83
2023/01/22 05:04:15;;;;;;;17.70;9.60;;;0.90;99.90;;;;;;6212808;23;20017;-84
2023/01/22 05:06:41;;;;;;;13.43;9.25;;;0.90;99.90;;;;;;6212708;23;20095;-84
2023/01/22 05:09:06;;;;;;;13.75;9.23;;;0.90;99.90;;;;;;6212753;23;20067;-84
2023/01/22 05:11:32;;;;;;;12.73;9.20;;;0.90;99.90;;;;;;6213003;23;20008;-83
2023/01/22 05:13:58;;;;;;;13.55;9.65;;;0.90;99.90;;;;;;6214061;23;20026;-84
2023/01/22 05:16:23;;;;;;;14.07;9.15;;;0.90;99.90;;;;;;6214885;23;20013;-84
2023/01/22 05:18:49;;;;;;;12.15;9.65;;;0.90;99.90;;;;;;6212923;23;20498;-84
2023/01/22 05:21:14;;;;;;;17.30;9.98;;;1.80;99.90;;;;;;6213626;23;20016;-83
2023/01/22 05:23:40;;;;;;;13.73;8.88;;;0.90;99.90;;;;;;6213005;23;20030;-84
2023/01/22 05:26:06;;;;;;;14.75;9.98;;;1.00;99.90;;;;;;6213895;23;20063;-84
2023/01/22 05:28:31;;;;;;;16.02;9.93;;;0.90;99.90;;;;;;6217133;23;20432;-84
2023/01/22 05:30:57;;;;;;;14.02;9.80;;;0.90;99.90;;;;;;6216038;23;20446;-84
2023/01/22 05:33:22;;;;;;;12.70;9.90;;;0.90;99.90;;;;;;6240110;23;20004;-84
2023/01/22 05:35:56;;;;;;;13.90;9.88;;;0.90;99.90;;;;;;6216227;23;20498;-84
2023/01/22 05:38:22;;;;;;;13.55;9.73;;;1.70;99.90;;;;;;6214720;23;20012;-84
2023/01/22 05:40:48;;;;;;;15.20;10.27;;;0.90;99.90;;;;;;6216921;23;20395;-84
2023/01/22 05:43:13;;;;;;;12.18;9.63;;;0.90;99.90;;;;;;6213849;23;20012;-84
2023/01/22 05:45:39;;;;;;;15.43;10.75;;;0.90;99.90;;;;;;6214581;23;20108;-84
2023/01/22 05:48:04;;;;;;;11.45;9.95;;;0.90;99.90;;;;;;6240139;23;20005;-84
2023/01/22 05:50:30;;;;;;;15.88;10.50;;;0.90;99.90;;;;;;6214629;23;20009;-84
2023/01/22 05:52:56;;;;;;;12.90;10.13;;;1.70;99.90;;;;;;6214233;23;20436;-83
2023/01/22 05:55:22;;;;;;;14.00;10.57;;;0.90;99.90;;;;;;6214320;23;20016;-83
2023/01/22 05:57:47;;;;;;;15.52;10.52;;;0.80;99.90;;;;;;6215694;23;20078;-84
2023/01/22 06:00:13;;;;;;;13.63;10.23;;;0.80;99.90;;;;;;6213931;23;20093;-83
2023/01/22 06:02:39;;;;;;;14.85;10.77;;;0.80;99.90;;;;;;6215820;23;20024;-83
2023/01/22 06:05:05;;;;;;;16.55;10.27;;;1.70;99.90;;;;;;6216040;23;20013;-84
2023/01/22 06:07:31;;;;;;;13.20;10.43;;;0.90;99.90;;;;;;6214515;23;20047;-84
2023/01/22 06:09:56;;;;;;;14.50;11.27;;;0.90;99.90;;;;;;6189482;23;20408;-83
2023/01/22 06:12:23;;;;;;;15.32;11.55;;;0.80;99.90;;;;;;6213285;23;20019;-84
2023/01/22 06:14:49;;;;;;;18.00;11.88;;;0.80;99.90;;;;;;6218853;23;20019;-84
2023/01/22 06:17:15;;;;;;;13.00;10.55;;;0.80;99.90;;;;;;6217364;23;20071;-85
2023/01/22 06:19:41;;;;;;;14.48;11.15;;;0.90;99.90;;;;;;6189438;23;20009;-84
2023/01/22 06:22:07;;;;;;;15.02;11.48;;;2.00;99.90;;;;;;6216141;23;20285;-84
2023/01/22 06:24:33;;;;;;;12.63;10.90;;;0.80;99.90;;;;;;6213672;23;20091;-85
2023/01/22 06:26:58;;;;;;;15.88;11.60;;;0.80;99.90;;;;;;6214778;23;20406;-84
2023/01/22 06:29:24;;;;;;;15.30;11.73;;;0.80;99.90;;;;;;6214656;23;20263;-84
2023/01/22 06:31:49;;;;;;;16.58;11.82;;;1.10;99.90;;;;;;6215365;23;20250;-84
2023/01/22 06:34:15;;;;;;;16.55;11.93;;;0.80;99.90;;;;;;6214514;23;20023;-83
2023/01/22 06:36:41;;;;;;;13.98;11.82;;;0.80;99.90;;;;;;6211893;23;20021;-83
2023/01/22 06:39:06;;;;;;;16.83;11.98;;;1.90;99.90;;;;;;6211710;23;20017;-82
2023/01/22 06:41:32;;;;;;;16.17;11.65;;;0.80;99.90;;;;;;6212013;23;20044;-82
2023/01/22 06:43:58;;;;;;;17.80;12.27;;;0.80;99.90;;;;;;6213615;23;20017;-82
2023/01/22 06:46:23;;;;;;;16.05;12.60;;;0.90;99.90;;;;;;6212088;23;20017;-82
2023/01/22 06:48:49;;;;;;;13.90;11.38;;;1.20;99.90;;;;;;6214062;23;20012;-82
2023/01/22 06:51:15;;;;;;;15.23;11.80;;;0.70;99.90;;;;;;6212604;23;20458;-82
2023/01/22 06:53:41;;;;;;;15.23;11.48;;;0.70;99.90;;;;;;6212108;23;20005;-83
2023/01/22 06:56:07;;;;;;;15.95;11.63;;;0.70;99.90;;;;;;6212017;23;20016;-82
2023/01/22 06:58:32;;;;;;;16.15;11.48;;;0.70;99.90;;;;;;6237919;23;20036;-81
2023/01/22 07:01:03;;;;;;;15.27;11.35;;;1.30;99.90;;;;;;6187686;23;20048;-82
2023/01/22 07:03:29;;;;;;;13.88;12.02;;;0.70;99.90;;;;;;6238483;23;20069;-82
2023/01/22 07:06:00;;;;;;;13.10;11.35;;;0.70;99.90;;;;;;6213754;23;20045;-84
2023/01/22 07:08:27;;;;;;;16.98;12.63;;;0.70;99.90;;;;;;6239608;23;20016;-82
2023/01/22 07:10:53;;;;;;;14.60;11.75;;;0.70;99.90;;;;;;6213277;23;20088;-83
2023/01/22 07:13:19;;;;;;;15.25;12.40;;;0.70;99.90;;;;;;6211024;23;20062;-82
2023/01/22 07:15:45;;;;;;;16.75;11.93;;;0.70;99.90;;;;;;6210773;23;20355;-82
2023/01/22 07:18:13;;;;;;;17.25;12.82;;;0.70;99.90;;;;;;6212337;23;20028;-82
2023/01/22 07:20:43;;;;;;;14.55;11.82;;;0.70;99.90;;;;;;6212687;23;20348;-82
2023/01/22 07:23:09;;;;;;;16.63;12.52;;;0.70;99.90;;;;;;6211977;23;20438;-82
2023/01/22 07:25:34;;;;;;;15.93;11.98;;;0.60;99.90;;;;;;6213277;23;20083;-81
2023/01/22 07:28:01;;;;;;;17.60;13.02;;;0.60;99.90;;;;;;6213761;23;20047;-83
2023/01/22 07:30:27;;;;;;;13.88;12.45;;;0.60;99.90;;;;;;6213786;23;20066;-82
2023/01/22 07:32:53;;;;;;;15.18;13.13;;;0.60;99.90;;;;;;6211086;23;20099;-82
2023/01/22 07:35:19;;;;;;;15.63;13.32;;;0.60;99.90;;;;;;6210696;23;20371;-81
2023/01/22 07:37:52;;;;;;;16.38;13.68;;;1.10;99.90;;;;;;6212433;23;20024;-82
2023/01/22 07:40:18;;;;;;;15.55;13.68;;;0.60;99.90;;;;;;6212895;23;20012;-82
2023/01/22 07:42:44;;;;;;;17.42;14.75;;;0.60;99.90;;;;;;6213211;23;20458;-81
2023/01/22 07:45:09;;;;;;;17.00;13.40;;;0.60;99.90;;;;;;6211709;23;20013;-81
2023/01/22 07:47:35;;;;;;;18.50;15.02;;;0.60;99.90;;;;;;6213700;23;20009;-82
2023/01/22 07:50:01;;;;;;;15.20;12.82;;;1.00;99.90;;;;;;6212260;23;20176;-82
2023/01/22 07:52:26;;;;;;;21.67;14.38;;;0.60;99.90;;;;;;6212308;23;20008;-80
2023/01/22 07:54:52;;;;;;;19.23;13.00;;;1.00;99.90;;;;;;6210767;23;20368;-81
2023/01/22 07:57:18;;;;;;;15.40;13.07;;;0.60;99.90;;;;;;6211601;23;20412;-82
2023/01/22 07:59:44;;;;;;;16.77;13.88;;;0.60;99.90;;;;;;6211452;23;20017;-82
2023/01/22 08:02:13;;;;;;;17.45;15.02;;;1.40;99.90;;;;;;6211499;23;20019;-81
2023/01/22 08:04:42;;;;;;;16.17;14.02;;;0.60;99.90;;;;;;6236986;23;20337;-81
2023/01/22 08:07:14;;;;;;;16.42;13.80;;;1.30;99.90;;;;;;6211435;23;20023;-81
2023/01/22 08:09:40;;;;;;;18.95;14.48;;;1.30;99.90;;;;;;6213191;23;20458;-83
2023/01/22 08:12:05;;;;;;;16.25;13.80;;;1.30;99.90;;;;;;6209765;23;20079;-81
2023/01/22 08:14:31;;;;;;;21.33;14.30;;;0.60;99.90;;;;;;6186265;23;20087;-81
2023/01/22 08:16:57;;;;;;;17.65;14.45;;;1.30;99.90;;;;;;6211179;23;20016;-81
2023/01/22 08:19:22;;;;;;;17.48;13.68;;;0.60;99.90;;;;;;6211370;23;20020;-81
2023/01/22 08:21:48;;;;;;;20.75;16.02;;;0.90;99.90;;;;;;6210664;23;20113;-81
2023/01/22 08:24:13;;;;;;;24.27;14.45;;;0.70;99.90;;;;;;6210136;23;20020;-80
2023/01/22 08:26:39;;;;;;;18.77;13.57;;;0.70;99.90;;;;;;6210230;23;20012;-81
2023/01/22 08:29:05;;;;;;;15.35;13.18;;;0.70;99.90;;;;;;6210736;23;20005;-82
2023/01/22 08:31:31;;;;;;;16.52;13.77;;;0.70;99.90;;;;;;6211559;23;20043;-80
2023/01/22 08:33:58;;;;;;;17.33;12.70;;;1.80;99.90;;;;;;6210440;23;20012;-80
2023/01/22 08:36:24;;;;;;;16.15;13.13;;;0.70;99.90;;;;;;6210359;23;20017;-81
2023/01/22 08:38:49;;;;;;;15.77;13.38;;;0.70;99.90;;;;;;6212303;23;20024;-84
2023/01/22 08:41:15;;;;;;;15.80;13.32;;;0.70;99.90;;;;;;6210434;23;20514;-84
2023/01/22 08:43:41;;;;;;;16.83;12.90;;;0.70;99.90;;;;;;6211185;23;20083;-83
2023/01/22 08:46:06;;;;;;;17.27;13.00;;;0.70;99.90;;;;;;6212759;23;20019;-81
2023/01/22 08:48:32;;;;;;;17.77;12.98;;;1.50;99.90;;;;;;6210044;23;20016;-83
2023/01/22 08:51:01;;;;;;;16.20;12.85;;;0.70;99.90;;;;;;6210677;23;20143;-83
2023/01/22 08:53:27;;;;;;;16.05;13.07;;;1.40;99.90;;;;;;6209938;23;20004;-85
2023/01/22 08:55:53;;;;;;;16.35;13.35;;;0.80;99.90;;;;;;6212963;23;20023;-82
2023/01/22 08:58:24;;;;;;;17.42;13.27;;;1.90;99.90;;;;;;6209533;23;20091;-83
2023/01/22 09:00:50;;;;;;;17.35;12.95;;;0.70;99.90;;;;;;6209456;23;20085;-82
2023/01/22 09:03:16;;;;;;;17.92;13.63;;;0.80;99.90;;;;;;6210158;23;20012;-82
2023/01/22 09:05:41;;;;;;;14.98;13.10;;;0.80;99.90;;;;;;6210677;23;20091;-81
2023/01/22 09:08:07;;;;;;;17.48;12.77;;;1.70;99.90;;;;;;6209425;23;20013;-81
2023/01/22 09:10:33;;;;;;;17.13;12.20;;;1.70;99.90;;;;;;6208895;23;20016;-83
2023/01/22 09:12:59;;;;;;;16.27;12.65;;;1.30;99.90;;;;;;6209307;23;20454;-82
2023/01/22 09:15:26;;;;;;;18.63;12.55;;;0.80;99.90;;;;;;6211176;23;20020;-81
2023/01/22 09:17:51;;;;;;;19.27;12.73;;;0.90;99.90;;;;;;6211587;23;20012;-81
2023/01/22 09:20:17;;;;;;;21.88;12.73;;;1.70;99.90;;;;;;6208950;23;20090;-83
2023/01/22 09:22:47;;;;;;;17.17;12.43;;;0.90;99.90;;;;;;6212252;23;20012;-80
2023/01/22 09:25:13;;;;;;;19.08;13.23;;;0.90;99.90;;;;;;6211972;23;20017;-80
2023/01/22 09:27:39;;;;;;;19.73;12.38;;;0.90;99.90;;;;;;6210210;23;20088;-82
2023/01/22 09:30:05;;;;;;;15.60;12.32;;;1.50;99.90;;;;;;6210509;23;20040;-81
2023/01/22 09:32:30;;;;;;;16.30;11.75;;;0.90;99.90;;;;;;6212552;23;20313;-85
2023/01/22 09:34:56;;;;;;;16.65;12.13;;;1.00;99.90;;;;;;6210073;23;20023;-82
2023/01/22 09:37:22;;;;;;;15.88;11.82;;;1.10;99.90;;;;;;6210719;23;20012;-83
2023/01/22 09:39:49;;;;;;;16.20;11.48;;;1.10;99.90;;;;;;6185520;23;20431;-83
2023/01/22 09:42:36;;;;;;;14.13;11.77;;;1.20;99.90;;;;;;6208936;23;20280;-80
2023/01/22 09:45:08;;;;;;;16.20;10.68;;;1.20;99.90;;;;;;6212466;23;20151;-80
2023/01/22 09:47:46;;;;;;;14.40;11.25;;;1.20;99.90;;;;;;6212227;23;20040;-81
2023/01/22 09:50:16;;;;;;;15.73;11.85;;;1.40;99.90;;;;;;6211651;23;20005;-80
2023/01/22 09:52:42;;;;;;;13.43;11.38;;;1.20;99.90;;;;;;6212508;23;20072;-82
2023/01/22 09:55:13;;;;;;;12.70;10.80;;;1.20;99.90;;;;;;6212265;23;20013;-83
2023/01/22 09:57:51;;;;;;;13.02;11.18;;;1.30;99.90;;;;;;6210901;23;20092;-83
2023/01/22 10:00:23;;;;;;;15.57;11.00;;;1.20;99.90;;;;;;6208531;23;20389;-83
2023/01/22 10:03:08;;;;;;;14.65;11.45;;;1.20;99.90;;;;;;6210808;23;20051;-84
2023/01/22 10:05:41;;;;;;;13.65;11.32;;;1.20;99.90;;;;;;6211221;23;20013;-87
2023/01/22 10:08:29;;;;;;;14.15;11.18;;;1.30;99.90;;;;;;6184580;23;20340;-83
2023/01/22 10:10:59;;;;;;;12.15;10.68;;;1.30;99.90;;;;;;6211975;23;20063;-81
2023/01/22 10:13:32;;;;;;;13.70;11.73;;;1.40;99.90;;;;;;6215043;23;20012;-81
2023/01/22 10:15:58;;;;;;;18.08;12.73;;;1.30;99.90;;;;;;6209276;23;20023;-82
2023/01/22 10:18:38;;;;;;;16.08;10.63;;;1.40;99.90;;;;;;6210498;23;20371;-81
2023/01/22 10:21:25;;;;;;;11.93;10.73;;;1.50;99.90;;;;;;6210768;23;20008;-81
2023/01/22 10:23:54;;;;;;;13.10;10.45;;;1.50;99.90;;;;;;6210787;23;20023;-81
2023/01/22 10:26:32;;;;;;;12.88;11.20;;;1.50;99.90;;;;;;6213416;23;20024;-79
2023/01/22 10:29:04;;;;;;;14.75;11.00;;;1.60;99.90;;;;;;6211695;23;20070;-81
2023/01/22 10:31:33;;;;;;;15.13;10.82;;;1.60;99.90;;;;;;6213438;23;20327;-80
2023/01/22 10:34:09;;;;;;;15.10;11.10;;;1.60;99.90;;;;;;6210776;23;20009;-83
2023/01/22 10:36:34;;;;;;;14.25;10.77;;;1.60;99.90;;;;;;6213396;23;20024;-83
2023/01/22 10:39:12;;;;;;;13.43;11.13;;;1.70;99.90;;;;;;6212674;23;20307;-81
2023/01/22 10:41:42;;;;;;;12.23;10.93;;;1.70;99.90;;;;;;6210485;23;20012;-84
2023/01/22 10:44:15;;;;;;;13.80;11.15;;;1.70;99.90;;;;;;6213915;23;20012;-80
2023/01/22 10:46:41;;;;;;;14.07;11.60;;;1.80;99.90;;;;;;6212359;23;20495;-82
2023/01/22 10:49:18;;;;;;;13.38;11.27;;;1.80;99.90;;;;;;6213362;23;20012;-83
2023/01/22 10:51:57;;;;;;;12.73;11.18;;;1.80;99.90;;;;;;6186629;23;20008;-83
2023/01/22 10:54:30;;;;;;;13.73;10.98;;;1.80;99.90;;;;;;6213529;23;20013;-82
2023/01/22 10:57:24;;;;;;;14.52;11.25;;;1.90;99.90;;;;;;6212734;23;20117;-83
2023/01/22 11:00:05;;;;;;;15.03;11.80;;;1.90;99.90;;;;;;6207800;23;20316;-87
2023/01/22 11:02:34;;;;;;;12.00;10.73;;;1.90;99.90;;;;;;6210469;23;20115;-84
2023/01/22 11:05:17;;;;;;;15.13;10.82;;;1.90;99.90;;;;;;6214546;23;20005;-84
2023/01/22 11:07:46;;;;;;;12.40;10.93;;;1.90;99.90;;;;;;6212192;23;20026;-84
2023/01/22 11:10:24;;;;;;;14.55;10.80;;;2.00;99.90;;;;;;6213030;23;20012;-82
2023/01/22 11:13:11;;;;;;;12.07;10.68;;;2.00;99.90;;;;;;6217301;23;20009;-92
2023/01/22 11:15:45;;;;;;;14.23;11.30;;;2.00;99.90;;;;;;6214848;23;20100;-84
2023/01/22 11:18:15;;;;;;;;;;;2.00;99.90;;;;;;6190699;23;20454;-85
2023/01/22 11:20:56;;;;;;;13.10;11.63;;;2.10;99.90;;;;;;6214638;23;19911;-85
2023/01/22 11:23:28;;;;;;;13.45;11.13;;;2.10;99.90;;;;;;6212083;23;20039;-85
2023/01/22 11:26:19;;;;;;;14.00;11.38;;;2.10;99.90;;;;;;6186093;23;20023;-82
2023/01/22 11:29:24;;;;;;;13.00;11.60;;;2.10;99.90;;;;;;6186893;23;20070;-85
2023/01/22 11:32:04;;;;;;;16.10;11.50;;;2.10;99.90;;;;;;6212777;23;20013;-84
2023/01/22 11:35:02;;;;;;;15.52;11.63;;;2.20;99.90;;;;;;6212527;23;20013;-85
2023/01/22 11:37:45;;;;;;;14.95;11.07;;;2.10;99.90;;;;;;6189329;23;20008;-88
2023/01/22 11:40:26;;;;;;;13.60;11.23;;;2.10;99.90;;;;;;6212867;23;20016;-82
2023/01/22 11:42:54;;;;;;;15.88;11.77;;;2.10;99.90;;;;;;6210941;23;20012;-84
2023/01/22 11:45:46;;;;;;;15.38;11.15;;;2.20;99.90;;;;;;6185155;23;20082;-80
2023/01/22 11:48:30;;;;;;;13.35;11.85;;;2.20;99.90;;;;;;6212939;23;20048;-84
2023/01/22 11:51:11;;;;;;;14.70;11.13;;;2.20;99.90;;;;;;6212372;23;20024;-82
2023/01/22 11:54:01;;;;;;;19.08;14.13;;;2.30;99.90;;;;;;6212615;23;20012;-85
2023/01/22 11:56:36;;;;;;;18.17;10.93;;;2.20;99.90;;;;;;6211280;23;20099;-85
2023/01/22 11:59:07;;;;;;;14.43;11.60;;;2.20;99.90;;;;;;6213121;23;20219;-83
2023/01/22 12:01:51;;;;;;;13.63;10.85;;;2.20;99.90;;;;;;6214814;23;20005;-86
2023/01/22 12:04:17;;;;;;;12.68;10.48;;;2.30;99.90;;;;;;6212678;23;20016;-87
2023/01/22 12:07:13;;;;;;;12.95;10.88;;;2.30;99.90;;;;;;6213482;23;20028;-84
2023/01/22 12:09:45;;;;;;;14.52;11.38;;;2.40;99.90;;;;;;6212336;23;20039;-83
2023/01/22 12:12:29;;;;;;;13.25;11.45;;;2.40;99.90;;;;;;6210583;23;20428;-82
2023/01/22 12:15:19;;;;;;;12.73;10.65;;;3.00;99.90;;;;;;6209795;23;20027;-83
2023/01/22 12:18:03;;;;;;;14.80;10.60;;;2.40;99.90;;;;;;6187361;23;20009;-83
2023/01/22 12:21:06;;;;;;;14.10;10.88;;;2.30;99.90;;;;;;6185260;23;20016;-79
2023/01/22 12:23:52;;;;;;;14.43;10.95;;;2.30;99.90;;;;;;6043612;23;20075;-86
2023/01/22 12:26:31;;;;;;;13.30;10.43;;;2.40;99.90;;;;;;6091195;23;20014;-83
2023/01/22 12:29:11;;;;;;;11.50;10.13;;;2.30;99.90;;;;;;6067861;23;20018;-85
2023/01/22 12:31:44;;;;;;;15.65;11.20;;;2.30;99.90;;;;;;6094467;23;20319;-86
2023/01/22 12:34:23;;;;;;;13.10;10.55;;;2.30;99.90;;;;;;6068964;23;20445;-83
2023/01/22 12:36:51;;;;;;;12.38;10.55;;;2.30;99.90;;;;;;6045336;23;20521;-82
2023/01/22 12:39:31;;;;;;;15.45;10.85;;;2.20;99.90;;;;;;6071946;23;20073;-87
2023/01/22 12:42:05;;;;;;;14.25;11.07;;;2.30;99.90;;;;;;6044728;23;20081;-86
2023/01/22 12:45:05;;;;;;;15.57;11.38;;;2.30;99.90;;;;;;6066516;23;20033;-83
2023/01/22 12:47:37;;;;;;;13.15;10.73;;;2.20;99.90;;;;;;6091167;23;20306;-85
2023/01/22 12:50:02;;;;;;;14.38;11.00;;;2.20;99.90;;;;;;6091885;23;20097;-81
2023/01/22 12:52:35;;;;;;;14.25;10.82;;;2.20;99.90;;;;;;6090602;23;20222;-83
2023/01/22 12:55:04;;;;;;;15.10;10.82;;;2.20;99.90;;;;;;6090797;23;20050;-80